createdAt,value
2016-09-18T00:00:28.078Z,0
2016-09-18T00:01:39.078Z,0
2016-09-18T00:02:50.082Z,0
2016-09-18T00:04:01.103Z,0
2016-09-18T00:05:12.107Z,0
2016-09-18T00:06:23.312Z,0
2016-09-18T00:07:34.312Z,0
2016-09-18T00:08:45.310Z,0
2016-09-18T00:09:56.311Z,0
2016-09-18T00:11:07.309Z,0
2016-09-18T00:12:18.309Z,0
2016-09-18T00:13:29.307Z,0
2016-09-18T00:14:40.312Z,0
2016-09-18T00:15:51.323Z,0
2016-09-18T00:17:02.325Z,0
2016-09-18T00:18:13.346Z,0
2016-09-18T00:19:24.392Z,0
2016-09-18T00:20:35.399Z,0
2016-09-18T00:21:46.400Z,0
2016-09-18T00:22:57.406Z,0
2016-09-18T00:24:08.412Z,0
2016-09-18T00:25:19.407Z,0
2016-09-18T00:26:30.405Z,0
2016-09-18T00:27:41.409Z,0
2016-09-18T00:28:52.406Z,0
2016-09-18T00:30:03.411Z,0
2016-09-18T00:31:14.412Z,0
2016-09-18T00:32:25.415Z,0
2016-09-18T00:33:36.618Z,0
2016-09-18T00:34:47.625Z,0
2016-09-18T00:35:58.628Z,0
2016-09-18T00:37:09.628Z,0
2016-09-18T00:38:20.636Z,0
2016-09-18T00:39:31.645Z,0
2016-09-18T00:40:42.645Z,0
2016-09-18T00:41:53.643Z,0
2016-09-18T00:43:04.643Z,0
2016-09-18T00:44:15.654Z,0
2016-09-18T00:45:26.653Z,0
2016-09-18T00:46:37.650Z,0
2016-09-18T00:47:48.657Z,0
2016-09-18T00:48:59.671Z,0
2016-09-18T00:50:10.672Z,0
2016-09-18T00:51:21.664Z,0
2016-09-18T00:52:32.674Z,0
2016-09-18T00:53:43.682Z,0
2016-09-18T00:54:55.085Z,0
2016-09-18T00:56:06.088Z,0
2016-09-18T00:57:17.109Z,0
2016-09-18T00:58:28.111Z,0
2016-09-18T00:59:39.107Z,0
2016-09-18T01:00:50.107Z,0
2016-09-18T01:02:01.109Z,0
2016-09-18T01:03:12.107Z,0
2016-09-18T01:04:23.311Z,0
2016-09-18T01:05:34.303Z,0
2016-09-18T01:06:45.310Z,0
2016-09-18T01:07:56.320Z,0
2016-09-18T01:09:07.319Z,0
2016-09-18T01:10:18.318Z,0
2016-09-18T01:11:29.309Z,0
2016-09-18T01:12:40.518Z,0
2016-09-18T01:13:51.521Z,0
2016-09-18T01:15:02.521Z,0
2016-09-18T01:16:13.524Z,0
2016-09-18T01:17:24.529Z,0
2016-09-18T01:18:35.736Z,0
2016-09-18T01:19:46.741Z,0
2016-09-18T01:20:57.741Z,0
2016-09-18T01:22:08.746Z,0
2016-09-18T01:23:19.751Z,0
2016-09-18T01:24:30.761Z,0
2016-09-18T01:25:41.768Z,0
2016-09-18T01:26:52.769Z,0
2016-09-18T01:28:03.764Z,0
2016-09-18T01:29:14.761Z,0
2016-09-18T01:30:25.756Z,0
2016-09-18T01:31:36.758Z,0
2016-09-18T01:32:47.784Z,0
2016-09-18T01:33:58.986Z,0
2016-09-18T01:35:09.977Z,0
2016-09-18T01:36:20.978Z,0
2016-09-18T01:37:31.979Z,0
2016-09-18T01:38:43.216Z,0
2016-09-18T01:39:54.219Z,0
2016-09-18T01:41:05.229Z,0
2016-09-18T01:42:16.236Z,0
2016-09-18T01:43:27.242Z,0
2016-09-18T01:44:38.457Z,0
2016-09-18T01:45:49.671Z,0
2016-09-18T01:47:00.679Z,0
2016-09-18T01:48:11.678Z,0
2016-09-18T01:49:22.675Z,0
2016-09-18T01:50:33.682Z,0
2016-09-18T01:51:44.682Z,0
2016-09-18T01:52:55.684Z,0
2016-09-18T01:54:06.886Z,0
2016-09-18T01:55:17.878Z,0
2016-09-18T01:56:28.883Z,0
2016-09-18T01:57:39.896Z,0
2016-09-18T01:58:51.097Z,0
2016-09-18T02:00:02.106Z,0
2016-09-18T02:01:13.116Z,0
2016-09-18T02:02:24.119Z,0
2016-09-18T02:03:35.117Z,0
2016-09-18T02:04:46.123Z,0
2016-09-18T02:05:57.124Z,0
2016-09-18T02:07:08.329Z,0
2016-09-18T02:08:19.339Z,0
2016-09-18T02:09:30.340Z,0
2016-09-18T02:10:41.342Z,0
2016-09-18T02:11:52.355Z,0
2016-09-18T02:13:03.361Z,0
2016-09-18T02:14:14.357Z,0
2016-09-18T02:15:25.566Z,0
2016-09-18T02:16:36.576Z,0
2016-09-18T02:17:47.584Z,0
2016-09-18T02:18:58.784Z,0
2016-09-18T02:20:09.791Z,0
2016-09-18T02:21:20.793Z,0
2016-09-18T02:22:31.794Z,0
2016-09-18T02:23:42.791Z,0
2016-09-18T02:24:53.801Z,0
2016-09-18T02:26:04.804Z,0
2016-09-18T02:27:16.006Z,0
2016-09-18T02:28:27.012Z,0
2016-09-18T02:29:38.014Z,0
2016-09-18T02:30:49.021Z,0
2016-09-18T02:32:00.025Z,0
2016-09-18T02:33:11.021Z,0
2016-09-18T02:34:22.032Z,0
2016-09-18T02:35:33.031Z,0
2016-09-18T02:36:44.036Z,0
2016-09-18T02:37:55.439Z,0
2016-09-18T02:39:06.443Z,0
2016-09-18T02:40:17.451Z,0
2016-09-18T02:41:28.455Z,0
2016-09-18T02:42:39.466Z,0
2016-09-18T02:43:50.508Z,0
2016-09-18T02:45:01.510Z,0
2016-09-18T02:46:12.513Z,0
2016-09-18T02:47:23.517Z,0
2016-09-18T02:48:34.730Z,0
2016-09-18T02:49:45.738Z,0
2016-09-18T02:50:56.734Z,0
2016-09-18T02:52:07.740Z,0
2016-09-18T02:53:18.743Z,0
2016-09-18T02:54:29.750Z,0
2016-09-18T02:55:40.758Z,0
2016-09-18T02:56:51.762Z,0
2016-09-18T02:58:02.976Z,0
2016-09-18T02:59:13.979Z,0
2016-09-18T03:00:24.997Z,0
2016-09-18T03:01:35.998Z,0
2016-09-18T03:02:47.022Z,0
2016-09-18T03:03:58.229Z,0
2016-09-18T03:05:09.239Z,0
2016-09-18T03:06:20.449Z,0
2016-09-18T03:07:31.657Z,0
2016-09-18T03:08:42.664Z,0
2016-09-18T03:09:53.884Z,0
2016-09-18T03:11:04.883Z,0
2016-09-18T03:12:15.888Z,0
2016-09-18T03:13:26.904Z,0
2016-09-18T03:14:37.909Z,0
2016-09-18T03:15:48.909Z,0
2016-09-18T03:16:59.908Z,0
2016-09-18T03:18:10.908Z,0
2016-09-18T03:19:21.906Z,0
2016-09-18T03:20:32.911Z,0
2016-09-18T03:21:44.527Z,0
2016-09-18T03:22:55.541Z,0
2016-09-18T03:24:06.543Z,0
2016-09-18T03:25:17.542Z,0
2016-09-18T03:26:28.547Z,0
2016-09-18T03:27:39.541Z,0
2016-09-18T03:28:50.550Z,0
2016-09-18T03:30:01.553Z,0
2016-09-18T03:31:12.572Z,0
2016-09-18T03:32:23.983Z,0
2016-09-18T03:33:34.995Z,0
2016-09-18T03:34:45.998Z,0
2016-09-18T03:35:56.999Z,0
2016-09-18T03:37:08.005Z,0
2016-09-18T03:38:19.013Z,0
2016-09-18T03:39:30.013Z,0
2016-09-18T03:40:41.012Z,0
2016-09-18T03:41:52.030Z,0
2016-09-18T03:43:03.022Z,0
2016-09-18T03:44:14.024Z,0
2016-09-18T03:45:25.027Z,0
2016-09-18T03:46:36.030Z,0
2016-09-18T03:47:47.032Z,0
2016-09-18T03:48:58.035Z,0
2016-09-18T03:50:09.035Z,0
2016-09-18T03:51:20.258Z,0
2016-09-18T03:52:31.258Z,0
2016-09-18T03:53:42.465Z,0
2016-09-18T03:54:53.473Z,0
2016-09-18T03:56:04.481Z,0
2016-09-18T03:57:15.490Z,0
2016-09-18T03:58:26.499Z,0
2016-09-18T03:59:37.502Z,0
2016-09-18T04:00:48.512Z,0
2016-09-18T04:01:59.521Z,0
2016-09-18T04:03:10.529Z,0
2016-09-18T04:04:21.530Z,0
2016-09-18T04:05:32.538Z,0
2016-09-18T04:06:43.543Z,0
2016-09-18T04:07:54.745Z,0
2016-09-18T04:09:05.744Z,0
2016-09-18T04:10:16.747Z,0
2016-09-18T04:11:27.956Z,0
2016-09-18T04:12:38.968Z,0
2016-09-18T04:13:49.974Z,0
2016-09-18T04:15:00.984Z,0
2016-09-18T04:16:12.001Z,0
2016-09-18T04:17:23.211Z,0
2016-09-18T04:18:34.212Z,0
2016-09-18T04:19:45.259Z,0
2016-09-18T04:20:56.265Z,0
2016-09-18T04:22:07.262Z,0
2016-09-18T04:23:18.259Z,0
2016-09-18T04:24:29.264Z,0
2016-09-18T04:25:40.268Z,0
2016-09-18T04:26:51.281Z,0
2016-09-18T04:28:02.286Z,0
2016-09-18T04:29:13.482Z,0
2016-09-18T04:30:24.561Z,0
2016-09-18T04:31:35.566Z,0
2016-09-18T04:32:46.769Z,0
2016-09-18T04:33:57.771Z,0
2016-09-18T04:35:08.977Z,0
2016-09-18T04:36:20.169Z,0
2016-09-18T04:37:31.371Z,0
2016-09-18T04:38:42.375Z,0
2016-09-18T04:39:53.376Z,0
2016-09-18T04:41:04.393Z,0
2016-09-18T04:42:15.397Z,0
2016-09-18T04:43:26.396Z,0
2016-09-18T04:44:37.595Z,0
2016-09-18T04:45:48.644Z,4
2016-09-18T04:46:59.644Z,4
2016-09-18T04:48:10.639Z,0
2016-09-18T04:49:21.658Z,0
2016-09-18T04:50:32.653Z,0
2016-09-18T04:51:43.656Z,4
2016-09-18T04:52:54.660Z,4
2016-09-18T04:54:05.664Z,4
2016-09-18T04:55:16.662Z,4
2016-09-18T04:56:27.651Z,4
2016-09-18T04:57:38.651Z,8
2016-09-18T04:58:49.658Z,8
2016-09-18T05:00:00.662Z,8
2016-09-18T05:01:11.863Z,12
2016-09-18T05:02:22.868Z,12
2016-09-18T05:03:33.865Z,16
2016-09-18T05:04:44.913Z,16
2016-09-18T05:05:55.919Z,20
2016-09-18T05:07:06.921Z,20
2016-09-18T05:08:18.128Z,28
2016-09-18T05:09:29.339Z,28
2016-09-18T05:10:40.340Z,36
2016-09-18T05:11:51.341Z,40
2016-09-18T05:13:02.346Z,44
2016-09-18T05:14:13.352Z,52
2016-09-18T05:15:24.550Z,60
2016-09-18T05:16:35.551Z,60
2016-09-18T05:17:46.557Z,64
2016-09-18T05:18:57.561Z,68
2016-09-18T05:20:08.812Z,76
2016-09-18T05:21:19.811Z,80
2016-09-18T05:22:31.745Z,88
2016-09-18T05:23:41.825Z,88
2016-09-18T05:24:52.828Z,96
2016-09-18T05:26:03.827Z,104
2016-09-18T05:27:14.821Z,108
2016-09-18T05:28:25.826Z,116
2016-09-18T05:29:36.827Z,124
2016-09-18T05:30:47.823Z,136
2016-09-18T05:31:58.827Z,144
2016-09-18T05:33:09.826Z,152
2016-09-18T05:34:21.234Z,160
2016-09-18T05:35:32.229Z,156
2016-09-18T05:36:43.232Z,160
2016-09-18T05:37:54.632Z,156
2016-09-18T05:39:05.635Z,148
2016-09-18T05:40:16.635Z,148
2016-09-18T05:41:27.636Z,156
2016-09-18T05:42:38.636Z,168
2016-09-18T05:43:49.639Z,176
2016-09-18T05:45:00.635Z,180
2016-09-18T05:46:11.645Z,184
2016-09-18T05:47:22.648Z,200
2016-09-18T05:48:33.849Z,204
2016-09-18T05:49:44.847Z,208
2016-09-18T05:50:55.847Z,200
2016-09-18T05:52:06.854Z,188
2016-09-18T05:53:17.856Z,184
2016-09-18T05:54:29.050Z,180
2016-09-18T05:55:40.054Z,176
2016-09-18T05:56:51.057Z,172
2016-09-18T05:58:02.057Z,164
2016-09-18T05:59:13.054Z,164
2016-09-18T06:00:24.057Z,180
2016-09-18T06:01:35.059Z,192
2016-09-18T06:02:46.061Z,208
2016-09-18T06:03:57.058Z,236
2016-09-18T06:05:08.058Z,264
2016-09-18T06:06:19.264Z,284
2016-09-18T06:07:30.261Z,300
2016-09-18T06:08:41.476Z,324
2016-09-18T06:09:52.674Z,348
2016-09-18T06:11:03.669Z,344
2016-09-18T06:12:14.658Z,340
2016-09-18T06:13:25.660Z,356
2016-09-18T06:14:36.669Z,380
2016-09-18T06:15:47.673Z,388
2016-09-18T06:16:58.671Z,384
2016-09-18T06:18:09.664Z,368
2016-09-18T06:19:20.667Z,348
2016-09-18T06:20:31.705Z,344
2016-09-18T06:21:43.197Z,336
2016-09-18T06:22:54.197Z,328
2016-09-18T06:24:05.606Z,348
2016-09-18T06:25:16.607Z,384
2016-09-18T06:26:27.609Z,396
2016-09-18T06:27:38.830Z,396
2016-09-18T06:28:50.025Z,448
2016-09-18T06:30:01.026Z,620
2016-09-18T06:31:12.023Z,828
2016-09-18T06:32:23.219Z,940
2016-09-18T06:33:34.211Z,964
2016-09-18T06:34:45.225Z,940
2016-09-18T06:35:56.220Z,868
2016-09-18T06:37:07.217Z,808
2016-09-18T06:38:18.413Z,796
2016-09-18T06:39:29.435Z,888
2016-09-18T06:40:40.435Z,960
2016-09-18T06:41:51.834Z,964
2016-09-18T06:43:03.041Z,940
2016-09-18T06:44:14.056Z,948
2016-09-18T06:45:25.062Z,980
2016-09-18T06:46:36.058Z,1076
2016-09-18T06:47:47.057Z,1120
2016-09-18T06:48:58.061Z,1184
2016-09-18T06:50:09.055Z,1116
2016-09-18T06:51:20.058Z,876
2016-09-18T06:52:31.061Z,752
2016-09-18T06:53:42.073Z,752
2016-09-18T06:54:53.074Z,888
2016-09-18T06:56:04.078Z,1204
2016-09-18T06:57:15.094Z,1488
2016-09-18T06:58:26.096Z,1444
2016-09-18T06:59:37.095Z,1308
2016-09-18T07:00:48.101Z,1312
2016-09-18T07:01:59.095Z,1548
2016-09-18T07:03:10.105Z,1580
2016-09-18T07:04:21.098Z,1452
2016-09-18T07:05:32.097Z,1396
2016-09-18T07:06:43.314Z,1640
2016-09-18T07:07:54.318Z,1584
2016-09-18T07:09:05.518Z,1752
2016-09-18T07:10:16.715Z,1988
2016-09-18T07:11:27.717Z,1744
2016-09-18T07:12:38.722Z,1520
2016-09-18T07:13:49.724Z,1764
2016-09-18T07:15:00.719Z,2004
2016-09-18T07:16:11.719Z,1812
2016-09-18T07:17:22.714Z,1788
2016-09-18T07:18:33.916Z,2120
2016-09-18T07:19:45.123Z,2416
2016-09-18T07:20:56.381Z,2180
2016-09-18T07:22:07.377Z,1712
2016-09-18T07:23:18.373Z,1464
2016-09-18T07:24:29.371Z,1352
2016-09-18T07:25:40.568Z,1580
2016-09-18T07:26:51.571Z,1852
2016-09-18T07:28:02.569Z,1788
2016-09-18T07:29:13.564Z,1852
2016-09-18T07:30:24.569Z,1920
2016-09-18T07:31:35.577Z,2112
2016-09-18T07:32:46.576Z,2244
2016-09-18T07:33:57.601Z,2384
2016-09-18T07:35:08.605Z,2460
2016-09-18T07:36:19.605Z,2584
2016-09-18T07:37:30.607Z,2540
2016-09-18T07:38:41.618Z,2780
2016-09-18T07:39:52.632Z,2860
2016-09-18T07:41:03.634Z,2532
2016-09-18T07:42:14.629Z,2328
2016-09-18T07:43:25.626Z,2240
2016-09-18T07:44:36.832Z,2184
2016-09-18T07:45:47.841Z,2296
2016-09-18T07:46:59.045Z,2304
2016-09-18T07:48:10.045Z,2544
2016-09-18T07:49:21.052Z,2852
2016-09-18T07:50:32.055Z,2780
2016-09-18T07:51:43.074Z,2996
2016-09-18T07:52:54.088Z,3096
2016-09-18T07:54:05.089Z,3332
2016-09-18T07:55:16.094Z,3760
2016-09-18T07:56:27.102Z,3192
2016-09-18T07:57:38.104Z,3644
2016-09-18T07:58:49.115Z,4084
2016-09-18T08:00:00.119Z,3140
2016-09-18T08:01:11.133Z,3060
2016-09-18T08:02:22.140Z,2896
2016-09-18T08:03:33.147Z,3320
2016-09-18T08:04:44.152Z,5840
2016-09-18T08:05:55.153Z,8576
2016-09-18T08:07:06.559Z,7484
2016-09-18T08:08:17.566Z,6084
2016-09-18T08:09:28.765Z,6292
2016-09-18T08:10:39.758Z,6536
2016-09-18T08:11:50.759Z,7304
2016-09-18T08:13:01.764Z,6192
2016-09-18T08:14:12.772Z,6696
2016-09-18T08:15:23.768Z,5920
2016-09-18T08:16:34.775Z,6708
2016-09-18T08:17:45.796Z,9296
2016-09-18T08:18:56.800Z,9968
2016-09-18T08:20:07.815Z,10064
2016-09-18T08:21:19.071Z,11032
2016-09-18T08:22:30.072Z,11592
2016-09-18T08:23:41.075Z,10768
2016-09-18T08:24:52.282Z,9644
2016-09-18T08:26:03.285Z,11512
2016-09-18T08:27:14.284Z,14912
2016-09-18T08:28:25.291Z,21920
2016-09-18T08:29:36.290Z,80032
2016-09-18T08:30:47.292Z,58176
2016-09-18T08:31:58.291Z,57312
2016-09-18T08:33:09.299Z,36832
2016-09-18T08:34:20.311Z,34944
2016-09-18T08:35:31.516Z,26080
2016-09-18T08:36:42.533Z,14920
2016-09-18T08:37:53.555Z,10320
2016-09-18T08:39:04.974Z,14668
2016-09-18T08:40:15.984Z,74624
2016-09-18T08:41:26.992Z,17760
2016-09-18T08:42:38.002Z,16896
2016-09-18T08:43:49.012Z,16960
2016-09-18T08:45:00.021Z,17952
2016-09-18T08:46:11.030Z,15456
2016-09-18T08:47:22.035Z,13896
2016-09-18T08:48:33.043Z,9096
2016-09-18T08:49:44.049Z,9152
2016-09-18T08:50:55.281Z,9056
2016-09-18T08:52:06.286Z,9056
2016-09-18T08:53:17.294Z,8268
2016-09-18T08:54:28.290Z,9460
2016-09-18T08:55:39.299Z,11140
2016-09-18T08:56:50.308Z,12768
2016-09-18T08:58:01.527Z,9968
2016-09-18T08:59:12.544Z,9832
2016-09-18T09:00:23.561Z,10720
2016-09-18T09:01:34.563Z,22112
2016-09-18T09:02:45.573Z,42176
2016-09-18T09:03:56.808Z,13080
2016-09-18T09:05:08.039Z,18240
2016-09-18T09:06:19.054Z,14668
2016-09-18T09:07:30.055Z,11864
2016-09-18T09:08:41.062Z,22080
2016-09-18T09:09:52.276Z,16512
2016-09-18T09:11:03.278Z,50336
2016-09-18T09:12:14.279Z,17792
2016-09-18T09:13:25.285Z,45760
2016-09-18T09:14:36.316Z,19392
2016-09-18T09:15:47.327Z,84192
2016-09-18T09:16:58.335Z,21696
2016-09-18T09:18:09.349Z,14460
2016-09-18T09:19:20.364Z,76128
2016-09-18T09:20:31.371Z,22880
2016-09-18T09:21:42.430Z,61504
2016-09-18T09:22:53.430Z,30080
2016-09-18T09:24:04.636Z,21472
2016-09-18T09:25:15.842Z,73408
2016-09-18T09:26:27.072Z,46880
2016-09-18T09:27:38.083Z,71136
2016-09-18T09:28:49.105Z,76096
2016-09-18T09:30:00.120Z,14300
2016-09-18T09:31:11.135Z,32768
2016-09-18T09:32:22.353Z,33888
2016-09-18T09:33:33.379Z,34336
2016-09-18T09:34:44.587Z,15200
2016-09-18T09:35:55.808Z,14716
2016-09-18T09:37:06.832Z,16320
2016-09-18T09:38:17.854Z,16352
2016-09-18T09:39:28.870Z,18496
2016-09-18T09:40:40.082Z,13788
2016-09-18T09:41:51.098Z,13816
2016-09-18T09:43:02.106Z,14792
2016-09-18T09:44:13.117Z,14588
2016-09-18T09:45:24.123Z,14920
2016-09-18T09:46:35.142Z,15316
2016-09-18T09:47:46.352Z,59648
2016-09-18T09:48:57.363Z,37984
2016-09-18T09:50:08.384Z,77568
2016-09-18T09:51:19.395Z,74720
2016-09-18T09:52:30.808Z,76704
2016-09-18T09:53:41.823Z,77088
2016-09-18T09:54:53.042Z,75488
2016-09-18T09:56:04.055Z,68288
2016-09-18T09:57:15.075Z,47616
2016-09-18T09:58:26.094Z,49280
2016-09-18T09:59:37.106Z,14144
2016-09-18T10:00:48.320Z,12728
2016-09-18T10:01:59.346Z,13020
2016-09-18T10:03:10.355Z,11120
2016-09-18T10:04:21.382Z,11664
2016-09-18T10:05:32.396Z,18176
2016-09-18T10:06:43.407Z,72576
2016-09-18T10:07:54.615Z,74368
2016-09-18T10:09:05.842Z,70208
2016-09-18T10:10:16.861Z,26080
2016-09-18T10:11:27.883Z,24928
2016-09-18T10:12:38.903Z,41312
2016-09-18T10:13:49.909Z,72192
2016-09-18T10:15:00.918Z,71744
2016-09-18T10:16:11.928Z,35744
2016-09-18T10:17:22.954Z,49920
2016-09-18T10:18:33.973Z,27936
2016-09-18T10:19:44.994Z,32608
2016-09-18T10:20:56.214Z,42112
2016-09-18T10:22:07.281Z,30016
2016-09-18T10:23:18.298Z,20960
2016-09-18T10:24:29.316Z,37568
2016-09-18T10:25:40.329Z,46112
2016-09-18T10:26:51.348Z,33184
2016-09-18T10:28:02.774Z,59488
2016-09-18T10:29:13.792Z,40352
2016-09-18T10:30:24.813Z,26176
2016-09-18T10:31:35.838Z,42016
2016-09-18T10:32:47.063Z,40608
2016-09-18T10:33:58.076Z,59808
2016-09-18T10:35:09.091Z,29856
2016-09-18T10:36:20.311Z,27072
2016-09-18T10:37:31.535Z,22368
2016-09-18T10:38:42.592Z,17408
2016-09-18T10:39:53.604Z,14736
2016-09-18T10:41:04.615Z,17792
2016-09-18T10:42:16.029Z,46496
2016-09-18T10:43:27.049Z,56512
2016-09-18T10:44:38.063Z,53312
2016-09-18T10:45:49.276Z,54624
2016-09-18T10:47:00.502Z,52672
2016-09-18T10:48:11.513Z,54016
2016-09-18T10:49:22.526Z,50496
2016-09-18T10:50:33.946Z,49248
2016-09-18T10:51:44.970Z,46784
2016-09-18T10:52:55.985Z,47104
2016-09-18T10:54:07.020Z,43456
2016-09-18T10:55:18.037Z,38560
2016-09-18T10:56:29.055Z,40096
2016-09-18T10:57:40.069Z,40768
2016-09-18T10:58:51.090Z,43712
2016-09-18T11:00:02.107Z,43232
2016-09-18T11:01:13.135Z,42816
2016-09-18T11:02:24.362Z,44448
2016-09-18T11:03:35.380Z,42624
2016-09-18T11:04:46.406Z,42656
2016-09-18T11:05:57.634Z,9808
2016-09-18T11:07:08.659Z,7184
2016-09-18T11:08:19.672Z,5896
2016-09-18T11:09:30.684Z,5752
2016-09-18T11:10:41.700Z,6008
2016-09-18T11:11:52.724Z,6244
2016-09-18T11:13:03.753Z,6836
2016-09-18T11:14:14.966Z,7440
2016-09-18T11:15:25.977Z,8156
2016-09-18T11:16:37.003Z,8396
2016-09-18T11:17:48.021Z,7912
2016-09-18T11:18:59.033Z,37088
2016-09-18T11:20:10.057Z,18176
2016-09-18T11:21:21.080Z,38208
2016-09-18T11:22:32.147Z,36704
2016-09-18T11:23:43.158Z,37504
2016-09-18T11:24:54.178Z,39456
2016-09-18T11:26:05.194Z,36768
2016-09-18T11:27:16.210Z,31040
2016-09-18T11:28:27.219Z,14244
2016-09-18T11:29:38.239Z,13124
2016-09-18T11:30:49.256Z,10644
2016-09-18T11:32:00.275Z,10072
2016-09-18T11:33:11.285Z,9256
2016-09-18T11:34:22.510Z,8548
2016-09-18T11:35:33.529Z,7836
2016-09-18T11:36:44.538Z,7140
2016-09-18T11:37:55.556Z,6772
2016-09-18T11:39:06.573Z,6776
2016-09-18T11:40:17.592Z,7044
2016-09-18T11:41:28.606Z,7680
2016-09-18T11:42:39.617Z,10556
2016-09-18T11:43:50.643Z,10372
2016-09-18T11:45:01.859Z,8920
2016-09-18T11:46:13.065Z,8640
2016-09-18T11:47:24.277Z,12228
2016-09-18T11:48:35.693Z,22304
2016-09-18T11:49:46.699Z,20256
2016-09-18T11:50:57.705Z,24544
2016-09-18T11:52:08.732Z,31264
2016-09-18T11:53:19.743Z,27264
2016-09-18T11:54:30.744Z,30144
2016-09-18T11:55:41.752Z,47712
2016-09-18T11:56:52.765Z,19200
2016-09-18T11:58:03.791Z,30976
2016-09-18T11:59:14.808Z,31648
2016-09-18T12:00:25.813Z,32320
2016-09-18T12:01:36.826Z,31232
2016-09-18T12:02:47.839Z,29472
2016-09-18T12:03:59.060Z,12680
2016-09-18T12:05:10.073Z,9964
2016-09-18T12:06:21.090Z,8372
2016-09-18T12:07:32.307Z,7400
2016-09-18T12:08:43.528Z,6660
2016-09-18T12:09:54.542Z,6272
2016-09-18T12:11:05.554Z,5788
2016-09-18T12:12:16.580Z,5468
2016-09-18T12:13:27.788Z,5308
2016-09-18T12:14:38.800Z,5400
2016-09-18T12:15:49.804Z,5424
2016-09-18T12:17:00.821Z,5552
2016-09-18T12:18:12.053Z,5704
2016-09-18T12:19:23.062Z,6188
2016-09-18T12:20:34.274Z,7416
2016-09-18T12:21:45.299Z,9152
2016-09-18T12:22:56.353Z,14848
2016-09-18T12:24:07.567Z,21024
2016-09-18T12:25:18.576Z,11592
2016-09-18T12:26:29.600Z,13240
2016-09-18T12:27:40.624Z,18336
2016-09-18T12:28:51.631Z,12040
2016-09-18T12:30:02.649Z,11208
2016-09-18T12:31:13.666Z,10160
2016-09-18T12:32:24.676Z,8008
2016-09-18T12:33:35.684Z,7660
2016-09-18T12:34:46.691Z,6108
2016-09-18T12:35:57.698Z,8832
2016-09-18T12:37:08.908Z,12088
2016-09-18T12:38:20.120Z,7072
2016-09-18T12:39:31.135Z,8660
2016-09-18T12:40:42.148Z,7824
2016-09-18T12:41:53.155Z,7112
2016-09-18T12:43:04.163Z,5968
2016-09-18T12:44:15.172Z,7020
2016-09-18T12:45:26.183Z,6652
2016-09-18T12:46:37.184Z,6804
2016-09-18T12:47:48.200Z,7140
2016-09-18T12:48:59.211Z,9052
2016-09-18T12:50:10.229Z,8576
2016-09-18T12:51:21.244Z,8304
2016-09-18T12:52:32.254Z,8592
2016-09-18T12:53:43.275Z,7804
2016-09-18T12:54:54.294Z,7656
2016-09-18T12:56:05.509Z,8764
2016-09-18T12:57:16.714Z,6716
2016-09-18T12:58:27.721Z,6384
2016-09-18T12:59:38.924Z,5604
2016-09-18T13:00:50.161Z,5284
2016-09-18T13:02:01.585Z,5200
2016-09-18T13:03:12.731Z,5272
2016-09-18T13:04:24.290Z,6548
2016-09-18T13:05:35.791Z,6704
2016-09-18T13:06:47.367Z,6304
2016-09-18T13:07:59.122Z,5640
2016-09-18T13:09:10.526Z,4588
2016-09-18T13:10:21.905Z,4424
2016-09-18T13:11:33.302Z,4488
2016-09-18T13:12:44.933Z,4720
2016-09-18T13:13:56.638Z,5088
2016-09-18T13:15:08.660Z,5604
2016-09-18T13:16:20.712Z,6580
2016-09-18T13:17:32.815Z,7424
2016-09-18T13:18:44.650Z,7988
2016-09-18T13:19:56.322Z,7420
2016-09-18T13:21:08.130Z,7244
2016-09-18T13:22:19.757Z,7720
2016-09-18T13:23:31.677Z,7880
2016-09-18T13:24:43.201Z,7928
2016-09-18T13:25:54.812Z,8052
2016-09-18T13:27:06.590Z,8032
2016-09-18T13:28:18.265Z,8056
2016-09-18T13:29:29.587Z,8416
2016-09-18T13:30:41.018Z,8800
2016-09-18T13:31:52.684Z,9100
2016-09-18T13:33:04.606Z,8700
2016-09-18T13:34:16.513Z,7128
2016-09-18T13:35:28.352Z,7248
2016-09-18T13:36:40.099Z,5420
2016-09-18T13:37:51.710Z,5180
2016-09-18T13:39:03.472Z,5032
2016-09-18T13:40:15.142Z,4980
2016-09-18T13:41:26.705Z,4936
2016-09-18T13:42:38.262Z,4888
2016-09-18T13:43:50.016Z,4764
2016-09-18T13:45:01.151Z,4648
2016-09-18T13:46:12.260Z,4560
2016-09-18T13:47:23.803Z,4464
2016-09-18T13:48:35.315Z,4380
2016-09-18T13:49:47.141Z,4288
2016-09-18T13:50:58.622Z,4296
2016-09-18T13:52:10.442Z,4248
2016-09-18T13:53:21.688Z,4324
2016-09-18T13:54:33.365Z,7020
2016-09-18T13:55:44.762Z,6944
2016-09-18T13:56:56.350Z,5292
2016-09-18T13:58:07.627Z,5708
2016-09-18T13:59:18.847Z,8428
2016-09-18T14:00:29.922Z,8912
2016-09-18T14:01:41.221Z,9220
2016-09-18T14:02:52.471Z,9048
2016-09-18T14:04:03.858Z,7848
2016-09-18T14:05:15.259Z,6116
2016-09-18T14:06:26.727Z,5408
2016-09-18T14:07:38.309Z,5080
2016-09-18T14:08:49.982Z,4856
2016-09-18T14:10:01.403Z,4708
2016-09-18T14:11:13.109Z,4660
2016-09-18T14:12:24.311Z,4608
2016-09-18T14:13:35.527Z,4584
2016-09-18T14:14:46.539Z,4588
2016-09-18T14:15:57.669Z,4520
2016-09-18T14:17:08.757Z,4500
2016-09-18T14:18:20.179Z,4464
2016-09-18T14:19:31.461Z,4452
2016-09-18T14:20:42.474Z,4432
2016-09-18T14:21:53.490Z,4472
2016-09-18T14:23:04.699Z,4428
2016-09-18T14:24:15.968Z,4284
2016-09-18T14:25:27.508Z,4112
2016-09-18T14:26:38.678Z,4016
2016-09-18T14:27:50.311Z,4040
2016-09-18T14:29:01.997Z,4140
2016-09-18T14:30:13.794Z,4260
2016-09-18T14:31:25.160Z,4412
2016-09-18T14:32:36.800Z,4564
2016-09-18T14:33:48.258Z,4884
2016-09-18T14:35:00.034Z,5616
2016-09-18T14:36:11.504Z,5640
2016-09-18T14:37:23.071Z,5600
2016-09-18T14:38:34.768Z,5504
2016-09-18T14:39:46.455Z,4956
2016-09-18T14:40:58.285Z,4808
2016-09-18T14:42:10.048Z,4660
2016-09-18T14:43:21.922Z,4540
2016-09-18T14:44:33.580Z,4392
2016-09-18T14:45:45.089Z,4264
2016-09-18T14:46:56.814Z,4212
2016-09-18T14:48:08.530Z,4268
2016-09-18T14:49:20.508Z,4328
2016-09-18T14:50:32.186Z,4128
2016-09-18T14:51:43.700Z,4088
2016-09-18T14:52:55.298Z,4104
2016-09-18T14:54:06.831Z,4112
2016-09-18T14:55:18.456Z,4136
2016-09-18T14:56:30.271Z,4108
2016-09-18T14:57:42.056Z,4016
2016-09-18T14:58:53.856Z,3980
2016-09-18T15:00:05.428Z,4052
2016-09-18T15:01:17.118Z,4220
2016-09-18T15:02:28.766Z,4392
2016-09-18T15:03:40.635Z,4564
2016-09-18T15:04:51.689Z,4656
2016-09-18T15:06:02.703Z,4584
2016-09-18T15:07:13.732Z,4612
2016-09-18T15:08:24.737Z,4612
2016-09-18T15:09:35.757Z,4360
2016-09-18T15:10:46.763Z,4128
2016-09-18T15:11:57.765Z,3956
2016-09-18T15:13:08.787Z,3844
2016-09-18T15:14:19.792Z,3772
2016-09-18T15:15:30.805Z,3664
2016-09-18T15:16:41.816Z,3560
2016-09-18T15:17:52.832Z,3484
2016-09-18T15:19:03.828Z,3512
2016-09-18T15:20:14.837Z,3340
2016-09-18T15:21:26.059Z,3352
2016-09-18T15:22:37.078Z,3348
2016-09-18T15:23:48.665Z,3296
2016-09-18T15:25:00.529Z,3344
2016-09-18T15:26:12.390Z,3348
2016-09-18T15:27:24.299Z,3388
2016-09-18T15:28:36.147Z,3384
2016-09-18T15:29:48.158Z,3216
2016-09-18T15:31:00.034Z,2880
2016-09-18T15:32:11.693Z,2492
2016-09-18T15:33:23.143Z,2132
2016-09-18T15:34:34.915Z,1852
2016-09-18T15:35:46.522Z,1628
2016-09-18T15:36:57.536Z,1484
2016-09-18T15:38:08.737Z,1388
2016-09-18T15:39:20.305Z,1320
2016-09-18T15:40:31.889Z,1296
2016-09-18T15:41:43.355Z,1312
2016-09-18T15:42:54.943Z,1348
2016-09-18T15:44:06.525Z,1412
2016-09-18T15:45:18.076Z,1476
2016-09-18T15:46:29.673Z,1564
2016-09-18T15:47:41.311Z,1648
2016-09-18T15:48:53.137Z,1724
2016-09-18T15:50:04.445Z,1764
2016-09-18T15:51:16.062Z,1792
2016-09-18T15:52:27.916Z,1816
2016-09-18T15:53:39.664Z,1836
2016-09-18T15:54:51.300Z,1860
2016-09-18T15:56:03.435Z,1888
2016-09-18T15:57:15.061Z,1892
2016-09-18T15:58:26.589Z,1872
2016-09-18T15:59:38.427Z,1856
2016-09-18T16:00:50.292Z,1840
2016-09-18T16:02:02.389Z,1844
2016-09-18T16:03:14.200Z,1844
2016-09-18T16:04:26.038Z,1816
2016-09-18T16:05:37.828Z,1796
2016-09-18T16:06:49.673Z,1780
2016-09-18T16:08:01.181Z,1760
2016-09-18T16:09:12.992Z,1748
2016-09-18T16:10:24.534Z,1736
2016-09-18T16:11:36.093Z,1700
2016-09-18T16:12:47.122Z,1668
2016-09-18T16:13:58.129Z,1632
2016-09-18T16:15:09.657Z,1604